Time;durP1;ratioP1;P1;durP2;ratioP2;P2;SDS_P1;SDS_P2;PMS_P1;PMS_P2;Temp;Humidity;BMP_temperature;BMP_pressure;BME280_temperature;BME280_humidity;BME280_pressure;Samples;Min_cycle;Max_cycle;Signal;HPM_P1;HPM_P2
2023/08/13 00:01:07;;;;;;;5.80;3.00;;;;;;;24.91;59.19;100430.56;668302;1262;139437;-76
2023/08/13 00:16:21;;;;;;;5.80;3.40;;;;;;;24.69;59.89;100421.71;668164;1265;138451;-76
2023/08/13 00:31:25;;;;;;;6.80;3.00;;;;;;;24.85;60.10;100422.06;667826;1265;138435;-77
2023/08/13 00:46:28;;;;;;;10.40;3.30;;;;;;;24.75;59.46;100412.36;667942;1260;137992;-76
2023/08/13 01:01:32;;;;;;;10.50;4.10;;;;;;;24.87;59.55;100400.35;667550;1264;142503;-75
2023/08/13 01:16:41;;;;;;;13.00;4.40;;;;;;;24.59;61.10;100388.41;667608;1265;139915;-76
2023/08/13 01:31:51;;;;;;;12.40;5.90;;;;;;;24.48;61.80;100377.15;667629;1265;138804;-76
2023/08/13 01:46:55;;;;;;;10.20;5.40;;;;;;;24.29;62.49;100362.04;667698;1274;138191;-76
2023/08/13 02:01:58;;;;;;;10.10;4.30;;;;;;;24.07;63.53;100362.14;667385;1265;139762;-77
2023/08/13 02:17:02;;;;;;;7.00;3.50;;;;;;;24.05;63.21;100365.67;667788;1265;139771;-77
2023/08/13 02:32:05;;;;;;;5.10;3.30;;;;;;;23.93;63.19;100361.47;668910;1264;139941;-76
2023/08/13 02:47:09;;;;;;;7.40;3.30;;;;;;;23.72;64.01;100355.43;669403;1265;139275;-77
2023/08/13 03:02:15;;;;;;;11.30;3.50;;;;;;;23.32;64.85;100342.05;669109;1264;138992;-76
2023/08/13 03:17:19;;;;;;;5.60;3.50;;;;;;;23.39;65.31;100319.89;669604;1262;139150;-77
2023/08/13 03:32:22;;;;;;;6.50;3.80;;;;;;;23.62;64.77;100310.71;667958;1265;138857;-76
2023/08/13 03:47:27;;;;;;;10.60;5.00;;;;;;;23.96;64.24;100328.49;668035;1264;139751;-76
2023/08/13 04:02:39;;;;;;;9.70;4.40;;;;;;;24.02;64.63;100323.05;668025;1260;140499;-78
2023/08/13 04:17:43;;;;;;;6.50;4.10;;;;;;;23.82;65.39;100320.40;668198;1264;139697;-77
2023/08/13 04:32:55;;;;;;;6.20;4.60;;;;;;;23.90;65.23;100315.05;667977;1265;140200;-78
2023/08/13 04:48:01;;;;;;;9.60;4.30;;;;;;;24.06;65.52;100311.66;669025;1265;140613;-77
2023/08/13 05:03:07;;;;;;;6.30;4.20;;;;;;;24.57;65.55;100327.80;667311;1265;140230;-77
2023/08/13 05:18:10;;;;;;;9.60;4.80;;;;;;;24.77;65.29;100331.20;667884;1265;140185;-77
2023/08/13 05:33:14;;;;;;;11.40;6.00;;;;;;;25.48;66.19;100339.45;669294;1264;139235;-77
2023/08/13 05:48:30;;;;;;;7.30;4.40;;;;;;;27.35;64.24;100348.11;670495;1265;139492;-78
2023/08/13 06:03:51;;;;;;;11.00;4.80;;;;;;;30.44;58.65;100357.98;669393;1265;138159;-77
2023/08/13 06:18:55;;;;;;;8.90;4.20;;;;;;;31.36;56.04;100353.59;668753;1265;138642;-76
2023/08/13 06:33:58;;;;;;;5.30;3.90;;;;;;;31.87;55.07;100361.71;668293;1262;138531;-76
2023/08/13 06:49:02;;;;;;;7.30;4.60;;;;;;;32.52;54.60;100365.06;668414;1265;138908;-77
2023/08/13 07:04:06;;;;;;;7.10;4.50;;;;;;;33.68;53.77;100372.56;668129;1265;138766;-77
2023/08/13 07:19:10;;;;;;;5.80;4.20;;;;;;;34.02;52.84;100380.94;667657;1265;138497;-77
2023/08/13 07:34:13;;;;;;;8.20;5.20;;;;;;;34.80;52.55;100387.44;668049;1274;140458;-77
2023/08/13 07:49:17;;;;;;;7.10;3.90;;;;;;;35.90;51.49;100391.46;668338;1265;138583;-77
2023/08/13 08:04:20;;;;;;;6.50;4.20;;;;;;;35.79;51.09;100394.73;668707;1263;138778;-77
2023/08/13 08:19:24;;;;;;;6.50;3.30;;;;;;;35.44;51.99;100413.22;668102;1266;138557;-75
2023/08/13 08:34:29;;;;;;;6.50;4.10;;;;;;;33.93;55.22;100424.31;668599;1265;138557;-77
2023/08/13 08:49:34;;;;;;;4.30;3.10;;;;;;;35.50;54.41;100429.50;668202;1265;138815;-78
2023/08/13 09:04:39;;;;;;;4.30;2.90;;;;;;;37.22;52.83;100424.85;668704;1266;138265;-76
2023/08/13 09:19:43;;;;;;;4.20;2.90;;;;;;;37.41;52.30;100422.61;668367;1265;138768;-75
2023/08/13 09:34:54;;;;;;;4.40;3.20;;;;;;;37.32;52.39;100418.27;668756;1275;138580;-78
2023/08/13 09:50:01;;;;;;;5.60;4.90;;;;;;;36.20;54.23;100429.06;668411;1266;138450;-76
2023/08/13 10:05:06;;;;;;;3.20;2.90;;;;;;;36.21;54.71;100431.35;670123;1266;139450;-76
2023/08/13 10:20:11;;;;;;;6.20;3.60;;;;;;;35.83;56.46;100435.46;670543;1266;138509;-77
2023/08/13 10:35:40;;;;;;;5.80;3.60;;;;;;;36.56;56.50;100439.48;670029;1266;139523;-76
2023/08/13 10:50:45;;;;;;;6.40;3.40;;;;;;;37.02;55.90;100437.17;667952;1266;139145;-76
2023/08/13 11:05:50;;;;;;;3.50;3.20;;;;;;;36.93;55.88;100444.24;668649;1265;138442;-78
2023/08/13 11:20:55;;;;;;;4.80;3.90;;;;;;;34.98;56.23;100443.82;668484;1266;138784;-76
2023/08/13 11:36:00;;;;;;;6.00;4.00;;;;;;;33.77;59.24;100437.08;668547;1276;138924;-76
2023/08/13 11:51:13;;;;;;;6.20;3.50;;;;;;;34.63;58.78;100439.95;668422;1269;139652;-76
2023/08/13 12:06:23;;;;;;;3.40;2.90;;;;;;;34.09;58.20;100438.32;668155;1261;138866;-76
2023/08/13 12:21:27;;;;;;;8.70;3.70;;;;;;;35.03;56.36;100441.70;667897;1264;138399;-75
2023/08/13 12:36:31;;;;;;;4.60;2.60;;;;;;;35.40;53.39;100447.13;668403;1267;139084;-75
2023/08/13 12:51:35;;;;;;;3.00;2.40;;;;;;;35.23;51.09;100456.73;668745;1274;139921;-77
2023/08/13 13:06:41;;;;;;;2.20;2.00;;;;;;;35.12;51.64;100456.29;668418;1274;138475;-77
2023/08/13 13:21:45;;;;;;;7.40;1.90;;;;;;;35.00;49.41;100461.80;669667;1260;138727;-77
2023/08/13 13:36:48;;;;;;;2.50;1.80;;;;;;;35.52;49.65;100474.92;669184;1274;138870;-78
2023/08/13 13:51:53;;;;;;;2.40;1.70;;;;;;;35.54;50.32;100481.47;670374;1273;139870;-80
2023/08/13 14:06:57;;;;;;;2.30;2.00;;;;;;;34.85;51.53;100483.31;668146;1266;141017;-76
2023/08/13 14:22:01;;;;;;;3.10;1.60;;;;;;;34.50;52.45;100478.21;667671;1267;139439;-75
2023/08/13 14:37:04;;;;;;;3.00;2.00;;;;;;;34.32;51.89;100475.73;669671;1267;140105;-86
2023/08/13 14:52:08;;;;;;;2.40;1.90;;;;;;;33.85;51.30;100480.25;670938;1267;140427;-77
2023/08/13 15:07:12;;;;;;;3.70;1.90;;;;;;;32.49;53.37;100485.13;671814;1275;138434;-79
2023/08/13 15:22:17;;;;;;;2.00;1.60;;;;;;;33.49;53.12;100485.45;673518;1264;139595;-78
2023/08/13 15:37:21;;;;;;;2.60;1.90;;;;;;;32.97;52.80;100495.66;673660;1261;138446;-78
2023/08/13 15:52:25;;;;;;;2.40;1.70;;;;;;;32.75;52.57;100489.42;669553;1264;138607;-76
2023/08/13 16:07:29;;;;;;;1.80;1.70;;;;;;;32.63;51.96;100482.69;668811;1263;138396;-77
2023/08/13 16:22:34;;;;;;;6.10;2.20;;;;;;;32.25;51.86;100490.39;669344;1263;138415;-77
2023/08/13 16:37:38;;;;;;;6.50;1.60;;;;;;;31.99;51.56;100494.20;669650;1264;139083;-74
2023/08/13 16:52:43;;;;;;;5.40;1.80;;;;;;;31.23;51.50;100498.49;672318;1263;138989;-76
2023/08/13 17:07:49;;;;;;;6.20;2.70;;;;;;;30.91;51.69;100505.87;671892;1260;139576;-76
2023/08/13 17:22:53;;;;;;;5.90;2.00;;;;;;;30.36;51.20;100516.38;670773;1264;138494;-77
2023/08/13 17:37:57;;;;;;;3.90;1.90;;;;;;;29.74;51.79;100519.92;671768;1266;139291;-76
2023/08/13 17:53:01;;;;;;;4.70;2.60;;;;;;;28.91;53.42;100529.55;673735;1265;139127;-76
2023/08/13 18:08:06;;;;;;;6.50;2.20;;;;;;;28.53;54.55;100544.30;671356;1275;139480;-76
2023/08/13 18:23:18;;;;;;;23.60;12.60;;;;;;;27.59;56.12;100552.75;669712;1266;139849;-77
2023/08/13 18:38:22;;;;;;;20.50;11.80;;;;;;;26.66;59.01;100584.84;669211;1261;140067;-76
2023/08/13 18:53:27;;;;;;;11.20;8.10;;;;;;;26.15;65.80;100614.84;671252;1263;139625;-77
2023/08/13 19:08:32;;;;;;;10.10;6.80;;;;;;;26.12;69.45;100632.94;674268;1262;139978;-77
2023/08/13 19:23:36;;;;;;;10.30;6.10;;;;;;;25.85;71.60;100646.30;670675;1264;139377;-77
2023/08/13 19:38:42;;;;;;;45.90;14.80;;;;;;;25.53;72.60;100668.59;673242;1260;139840;-77
2023/08/13 19:53:47;;;;;;;8.30;4.10;;;;;;;25.19;72.87;100681.23;669426;1274;140351;-76
2023/08/13 20:08:51;;;;;;;9.80;4.80;;;;;;;24.68;75.14;100689.86;668969;1262;140226;-77
2023/08/13 20:23:56;;;;;;;8.30;5.00;;;;;;;24.31;76.79;100689.21;670269;1260;139821;-77
2023/08/13 20:39:01;;;;;;;9.40;4.60;;;;;;;23.91;78.17;100687.61;669661;1262;140115;-77
2023/08/13 20:54:06;;;;;;;6.00;3.80;;;;;;;23.59;78.29;100700.26;671489;1263;139594;-78
2023/08/13 21:09:10;;;;;;;9.60;5.10;;;;;;;23.37;78.85;100710.00;673371;1264;140487;-78
2023/08/13 21:24:14;;;;;;;6.80;4.00;;;;;;;23.48;78.21;100703.91;669719;1265;139370;-77
2023/08/13 21:39:18;;;;;;;11.50;5.10;;;;;;;23.31;77.66;100696.39;671053;1265;140848;-78
2023/08/13 21:54:21;;;;;;;7.20;4.30;;;;;;;22.86;79.01;100699.50;669523;1266;139716;-78
2023/08/13 22:09:25;;;;;;;5.40;3.60;;;;;;;22.62;79.39;100696.27;670717;1265;139607;-77
2023/08/13 22:24:28;;;;;;;4.70;2.80;;;;;;;22.55;79.17;100692.19;671832;1264;139300;-77
2023/08/13 22:39:32;;;;;;;3.10;2.50;;;;;;;22.76;78.67;100690.71;672763;1266;140354;-78
2023/08/13 22:54:39;;;;;;;3.60;2.50;;;;;;;22.73;79.25;100697.05;672368;1264;139659;-79
2023/08/13 23:09:42;;;;;;;5.50;2.80;;;;;;;22.43;79.39;100703.43;671720;1263;139702;-77
2023/08/13 23:24:46;;;;;;;6.00;2.40;;;;;;;22.54;78.88;100711.42;676201;1265;140057;-79
2023/08/13 23:39:49;;;;;;;4.50;2.80;;;;;;;22.57;77.90;100712.16;678651;1265;139775;-78
2023/08/13 23:54:53;;;;;;;6.80;3.30;;;;;;;22.51;78.62;100709.36;672597;1266;139413;-77
